sensor_id;sensor_type;location;lat;lon;timestamp;pressure;altitude;pressure_sealevel;temperature;humidity
60258;BME280;46115;44.484;11.314;2023-01-08T00:02:57;100852.97;;;9.75;97.18
60258;BME280;46115;44.484;11.314;2023-01-08T00:06:59;100859.16;;;9.74;97.30
60258;BME280;46115;44.484;11.314;2023-01-08T00:11:03;100841.88;;;9.65;97.36
60258;BME280;46115;44.484;11.314;2023-01-08T00:15:06;100831.56;;;9.59;97.73
60258;BME280;46115;44.484;11.314;2023-01-08T00:19:09;100859.25;;;9.71;97.36
60258;BME280;46115;44.484;11.314;2023-01-08T00:23:12;100804.34;;;9.35;97.05
60258;BME280;46115;44.484;11.314;2023-01-08T00:27:16;100850.81;;;10.07;94.98
60258;BME280;46115;44.484;11.314;2023-01-08T00:31:18;100851.66;;;9.85;95.63
60258;BME280;46115;44.484;11.314;2023-01-08T00:35:20;100838.69;;;9.57;97.91
60258;BME280;46115;44.484;11.314;2023-01-08T00:39:22;100847.81;;;9.49;98.06
60258;BME280;46115;44.484;11.314;2023-01-08T00:43:26;100831.00;;;9.51;97.76
60258;BME280;46115;44.484;11.314;2023-01-08T00:47:29;100844.38;;;9.68;97.28
60258;BME280;46115;44.484;11.314;2023-01-08T00:51:31;100851.94;;;9.56;97.98
60258;BME280;46115;44.484;11.314;2023-01-08T00:55:34;100844.50;;;9.65;97.49
60258;BME280;46115;44.484;11.314;2023-01-08T00:59:38;100847.53;;;9.56;97.64
60258;BME280;46115;44.484;11.314;2023-01-08T01:03:40;100859.63;;;9.62;97.86
60258;BME280;46115;44.484;11.314;2023-01-08T01:07:43;100859.72;;;9.82;96.30
60258;BME280;46115;44.484;11.314;2023-01-08T01:11:45;100854.84;;;9.93;95.94
60258;BME280;46115;44.484;11.314;2023-01-08T01:15:56;100862.13;;;9.65;97.15
60258;BME280;46115;44.484;11.314;2023-01-08T01:19:59;100876.63;;;9.55;96.97
60258;BME280;46115;44.484;11.314;2023-01-08T01:24:04;100830.22;;;9.26;97.21
60258;BME280;46115;44.484;11.314;2023-01-08T01:28:07;100867.72;;;9.57;96.39
60258;BME280;46115;44.484;11.314;2023-01-08T01:32:10;100867.78;;;9.56;96.84
60258;BME280;46115;44.484;11.314;2023-01-08T01:36:14;100846.28;;;9.43;97.40
60258;BME280;46115;44.484;11.314;2023-01-08T01:40:17;100851.38;;;9.48;97.44
60258;BME280;46115;44.484;11.314;2023-01-08T01:44:38;100850.69;;;9.43;97.47
60258;BME280;46115;44.484;11.314;2023-01-08T01:48:42;100832.84;;;9.49;97.17
60258;BME280;46115;44.484;11.314;2023-01-08T01:52:48;100821.25;;;9.30;97.81
60258;BME280;46115;44.484;11.314;2023-01-08T01:56:52;100820.06;;;9.15;98.96
60258;BME280;46115;44.484;11.314;2023-01-08T02:00:57;100789.03;;;9.45;97.74
60258;BME280;46115;44.484;11.314;2023-01-08T02:05:04;100809.41;;;9.18;98.78
60258;BME280;46115;44.484;11.314;2023-01-08T02:09:13;100812.72;;;9.00;98.51
60258;BME280;46115;44.484;11.314;2023-01-08T02:13:22;100791.22;;;8.87;99.08
60258;BME280;46115;44.484;11.314;2023-01-08T02:17:38;100766.47;;;8.68;100.00
60258;BME280;46115;44.484;11.314;2023-01-08T02:21:50;100745.88;;;8.54;100.00
60258;BME280;46115;44.484;11.314;2023-01-08T02:26:06;100733.94;;;8.44;100.00
60258;BME280;46115;44.484;11.314;2023-01-08T02:30:11;100742.44;;;8.52;100.00
60258;BME280;46115;44.484;11.314;2023-01-08T02:34:14;100753.56;;;8.60;100.00
60258;BME280;46115;44.484;11.314;2023-01-08T02:38:17;100751.09;;;8.56;100.00
60258;BME280;46115;44.484;11.314;2023-01-08T02:42:26;100731.59;;;8.36;100.00
60258;BME280;46115;44.484;11.314;2023-01-08T02:46:32;100738.31;;;8.45;100.00
60258;BME280;46115;44.484;11.314;2023-01-08T02:50:39;100733.22;;;8.40;100.00
60258;BME280;46115;44.484;11.314;2023-01-08T02:54:44;100712.63;;;8.25;100.00
60258;BME280;46115;44.484;11.314;2023-01-08T02:58:50;100712.94;;;8.42;100.00
60258;BME280;46115;44.484;11.314;2023-01-08T03:03:02;100703.19;;;8.44;99.90
60258;BME280;46115;44.484;11.314;2023-01-08T03:07:07;100702.44;;;8.64;100.00
60258;BME280;46115;44.484;11.314;2023-01-08T03:11:11;100701.31;;;8.71;100.00
60258;BME280;46115;44.484;11.314;2023-01-08T03:15:22;100679.50;;;8.44;100.00
60258;BME280;46115;44.484;11.314;2023-01-08T03:19:28;100692.19;;;8.57;100.00
60258;BME280;46115;44.484;11.314;2023-01-08T03:23:32;100685.66;;;8.67;99.91
60258;BME280;46115;44.484;11.314;2023-01-08T03:27:38;100697.03;;;8.69;99.63
60258;BME280;46115;44.484;11.314;2023-01-08T03:31:45;100699.19;;;9.04;97.70
60258;BME280;46115;44.484;11.314;2023-01-08T03:35:50;100693.75;;;8.86;96.89
60258;BME280;46115;44.484;11.314;2023-01-08T03:39:57;100690.19;;;8.63;98.30
60258;BME280;46115;44.484;11.314;2023-01-08T03:44:02;100681.47;;;8.61;98.52
60258;BME280;46115;44.484;11.314;2023-01-08T03:48:06;100686.69;;;8.63;99.69
60258;BME280;46115;44.484;11.314;2023-01-08T03:52:20;100680.56;;;8.86;99.71
60258;BME280;46115;44.484;11.314;2023-01-08T03:56:25;100688.81;;;9.22;96.91
60258;BME280;46115;44.484;11.314;2023-01-08T04:00:27;100684.38;;;9.00;96.72
60258;BME280;46115;44.484;11.314;2023-01-08T04:04:31;100680.84;;;8.55;99.52
60258;BME280;46115;44.484;11.314;2023-01-08T04:08:33;100679.25;;;8.74;99.90
60258;BME280;46115;44.484;11.314;2023-01-08T04:12:36;100675.41;;;8.83;98.52
60258;BME280;46115;44.484;11.314;2023-01-08T04:16:38;100665.47;;;8.89;98.18
60258;BME280;46115;44.484;11.314;2023-01-08T04:20:44;100670.13;;;8.83;99.66
60258;BME280;46115;44.484;11.314;2023-01-08T04:24:47;100664.19;;;8.78;100.00
60258;BME280;46115;44.484;11.314;2023-01-08T04:28:50;100671.53;;;8.69;100.00
60258;BME280;46115;44.484;11.314;2023-01-08T04:32:52;100677.03;;;9.09;97.68
60258;BME280;46115;44.484;11.314;2023-01-08T04:36:55;100668.47;;;8.80;100.00
60258;BME280;46115;44.484;11.314;2023-01-08T04:40:59;100668.88;;;9.15;97.60
60258;BME280;46115;44.484;11.314;2023-01-08T04:45:01;100666.97;;;8.96;98.12
60258;BME280;46115;44.484;11.314;2023-01-08T04:49:04;100665.31;;;9.16;96.74
60258;BME280;46115;44.484;11.314;2023-01-08T04:53:08;100669.34;;;8.81;99.95
60258;BME280;46115;44.484;11.314;2023-01-08T04:57:10;100663.13;;;9.05;98.56
60258;BME280;46115;44.484;11.314;2023-01-08T05:01:16;100678.38;;;9.19;97.57
60258;BME280;46115;44.484;11.314;2023-01-08T05:05:20;100667.59;;;9.25;97.78
60258;BME280;46115;44.484;11.314;2023-01-08T05:09:24;100683.72;;;9.17;98.57
60258;BME280;46115;44.484;11.314;2023-01-08T05:13:27;100688.56;;;9.06;98.24
60258;BME280;46115;44.484;11.314;2023-01-08T05:17:29;100686.31;;;9.19;98.81
60258;BME280;46115;44.484;11.314;2023-01-08T05:21:32;100684.72;;;9.15;98.47
60258;BME280;46115;44.484;11.314;2023-01-08T05:25:36;100679.47;;;8.91;100.00
60258;BME280;46115;44.484;11.314;2023-01-08T05:29:38;100675.53;;;8.56;100.00
60258;BME280;46115;44.484;11.314;2023-01-08T05:33:40;100676.31;;;9.05;100.00
60258;BME280;46115;44.484;11.314;2023-01-08T05:37:43;100666.38;;;9.12;100.00
60258;BME280;46115;44.484;11.314;2023-01-08T05:41:47;100650.09;;;8.79;100.00
60258;BME280;46115;44.484;11.314;2023-01-08T05:45:49;100646.59;;;9.00;100.00
60258;BME280;46115;44.484;11.314;2023-01-08T05:49:51;100639.59;;;8.77;100.00
60258;BME280;46115;44.484;11.314;2023-01-08T05:53:54;100625.09;;;9.11;100.00
60258;BME280;46115;44.484;11.314;2023-01-08T05:58:01;100629.06;;;9.21;100.00
60258;BME280;46115;44.484;11.314;2023-01-08T06:02:03;100622.25;;;8.93;100.00
60258;BME280;46115;44.484;11.314;2023-01-08T06:06:06;100611.66;;;9.17;100.00
60258;BME280;46115;44.484;11.314;2023-01-08T06:10:09;100617.44;;;9.04;100.00
60258;BME280;46115;44.484;11.314;2023-01-08T06:14:13;100611.28;;;8.82;100.00
60258;BME280;46115;44.484;11.314;2023-01-08T06:18:15;100601.31;;;8.68;100.00
60258;BME280;46115;44.484;11.314;2023-01-08T06:22:18;100606.31;;;8.96;100.00
60258;BME280;46115;44.484;11.314;2023-01-08T06:26:20;100595.22;;;9.10;100.00
60258;BME280;46115;44.484;11.314;2023-01-08T06:30:24;100591.47;;;8.94;100.00
60258;BME280;46115;44.484;11.314;2023-01-08T06:34:26;100581.97;;;9.12;100.00
60258;BME280;46115;44.484;11.314;2023-01-08T06:38:30;100547.16;;;8.60;100.00
60258;BME280;46115;44.484;11.314;2023-01-08T06:42:32;100573.53;;;8.82;100.00
60258;BME280;46115;44.484;11.314;2023-01-08T06:46:35;100572.47;;;8.64;100.00
60258;BME280;46115;44.484;11.314;2023-01-08T06:50:40;100569.66;;;8.68;100.00
60258;BME280;46115;44.484;11.314;2023-01-08T06:54:42;100562.56;;;8.70;100.00
60258;BME280;46115;44.484;11.314;2023-01-08T06:58:44;100553.88;;;8.67;100.00
60258;BME280;46115;44.484;11.314;2023-01-08T07:02:48;100559.53;;;9.01;100.00
60258;BME280;46115;44.484;11.314;2023-01-08T07:06:50;100553.47;;;8.56;100.00
60258;BME280;46115;44.484;11.314;2023-01-08T07:10:53;100545.13;;;8.66;100.00
60258;BME280;46115;44.484;11.314;2023-01-08T07:14:55;100543.75;;;8.80;100.00
60258;BME280;46115;44.484;11.314;2023-01-08T07:18:59;100526.59;;;8.69;100.00
60258;BME280;46115;44.484;11.314;2023-01-08T07:23:02;100526.00;;;8.83;100.00
60258;BME280;46115;44.484;11.314;2023-01-08T07:27:05;100522.25;;;8.67;100.00
60258;BME280;46115;44.484;11.314;2023-01-08T07:31:07;100524.28;;;9.04;100.00
60258;BME280;46115;44.484;11.314;2023-01-08T07:35:11;100539.47;;;8.97;100.00
60258;BME280;46115;44.484;11.314;2023-01-08T07:39:14;100547.50;;;9.36;100.00
60258;BME280;46115;44.484;11.314;2023-01-08T07:43:16;100545.88;;;9.54;100.00
60258;BME280;46115;44.484;11.314;2023-01-08T07:47:18;100555.28;;;9.60;100.00
60258;BME280;46115;44.484;11.314;2023-01-08T07:51:22;100553.44;;;9.62;100.00
60258;BME280;46115;44.484;11.314;2023-01-08T07:55:24;100546.09;;;9.68;100.00
60258;BME280;46115;44.484;11.314;2023-01-08T07:59:27;100539.00;;;9.50;100.00
60258;BME280;46115;44.484;11.314;2023-01-08T08:03:29;100552.66;;;9.80;100.00
60258;BME280;46115;44.484;11.314;2023-01-08T08:07:51;100547.41;;;9.40;100.00
60258;BME280;46115;44.484;11.314;2023-01-08T08:11:53;100541.75;;;9.06;100.00
60258;BME280;46115;44.484;11.314;2023-01-08T08:15:59;100541.03;;;9.03;100.00
60258;BME280;46115;44.484;11.314;2023-01-08T08:20:02;100540.50;;;9.15;100.00
60258;BME280;46115;44.484;11.314;2023-01-08T08:24:06;100537.09;;;9.13;100.00
60258;BME280;46115;44.484;11.314;2023-01-08T08:28:10;100543.75;;;8.80;100.00
60258;BME280;46115;44.484;11.314;2023-01-08T08:32:12;100539.06;;;8.86;100.00
60258;BME280;46115;44.484;11.314;2023-01-08T08:36:15;100524.34;;;9.02;100.00
60258;BME280;46115;44.484;11.314;2023-01-08T08:40:18;100530.78;;;9.37;100.00
60258;BME280;46115;44.484;11.314;2023-01-08T08:44:21;100510.34;;;9.00;100.00
60258;BME280;46115;44.484;11.314;2023-01-08T08:48:26;100538.72;;;9.36;100.00
60258;BME280;46115;44.484;11.314;2023-01-08T08:52:29;100534.56;;;9.30;100.00
60258;BME280;46115;44.484;11.314;2023-01-08T08:56:32;100522.72;;;9.41;100.00
60258;BME280;46115;44.484;11.314;2023-01-08T09:00:35;100516.81;;;9.75;100.00
60258;BME280;46115;44.484;11.314;2023-01-08T09:04:38;100518.13;;;10.04;100.00
60258;BME280;46115;44.484;11.314;2023-01-08T09:08:40;100526.75;;;10.27;98.63
60258;BME280;46115;44.484;11.314;2023-01-08T09:12:43;100526.38;;;10.35;98.76
60258;BME280;46115;44.484;11.314;2023-01-08T09:16:46;100520.88;;;10.40;98.90
60258;BME280;46115;44.484;11.314;2023-01-08T09:20:48;100519.25;;;9.98;99.34
60258;BME280;46115;44.484;11.314;2023-01-08T09:24:50;100517.53;;;9.78;100.00
60258;BME280;46115;44.484;11.314;2023-01-08T09:28:57;100518.78;;;10.09;100.00
60258;BME280;46115;44.484;11.314;2023-01-08T09:33:00;100510.16;;;9.66;100.00
60258;BME280;46115;44.484;11.314;2023-01-08T09:37:04;100504.97;;;9.44;100.00
60258;BME280;46115;44.484;11.314;2023-01-08T09:41:09;100489.16;;;9.63;100.00
60258;BME280;46115;44.484;11.314;2023-01-08T09:45:23;100475.13;;;9.03;100.00
60258;BME280;46115;44.484;11.314;2023-01-08T09:49:30;100467.06;;;9.65;100.00
60258;BME280;46115;44.484;11.314;2023-01-08T09:53:35;100465.13;;;9.69;100.00
60258;BME280;46115;44.484;11.314;2023-01-08T09:57:37;100462.63;;;9.47;100.00
60258;BME280;46115;44.484;11.314;2023-01-08T10:01:41;100451.81;;;9.72;100.00
60258;BME280;46115;44.484;11.314;2023-01-08T10:05:45;100442.19;;;9.90;100.00
60258;BME280;46115;44.484;11.314;2023-01-08T10:09:48;100447.25;;;9.94;100.00
60258;BME280;46115;44.484;11.314;2023-01-08T10:13:53;100426.84;;;10.17;98.48
60258;BME280;46115;44.484;11.314;2023-01-08T10:18:01;100430.25;;;10.38;98.21
60258;BME280;46115;44.484;11.314;2023-01-08T10:22:09;100432.19;;;10.34;97.96
60258;BME280;46115;44.484;11.314;2023-01-08T10:26:24;100431.03;;;10.40;97.98
60258;BME280;46115;44.484;11.314;2023-01-08T10:30:33;100419.44;;;10.25;99.25
60258;BME280;46115;44.484;11.314;2023-01-08T10:34:42;100401.06;;;10.41;98.83
60258;BME280;46115;44.484;11.314;2023-01-08T10:38:49;100396.50;;;10.25;98.35
60258;BME280;46115;44.484;11.314;2023-01-08T10:42:52;100388.28;;;10.13;98.99
60258;BME280;46115;44.484;11.314;2023-01-08T10:46:57;100380.00;;;10.01;100.00
60258;BME280;46115;44.484;11.314;2023-01-08T10:51:12;100374.47;;;10.44;97.69
60258;BME280;46115;44.484;11.314;2023-01-08T10:55:22;100370.91;;;10.79;95.63
60258;BME280;46115;44.484;11.314;2023-01-08T10:59:24;100366.13;;;10.69;95.30
60258;BME280;46115;44.484;11.314;2023-01-08T11:03:30;100364.91;;;10.41;98.23
60258;BME280;46115;44.484;11.314;2023-01-08T11:07:34;100358.47;;;10.81;96.46
60258;BME280;46115;44.484;11.314;2023-01-08T11:11:37;100350.31;;;11.02;94.40
60258;BME280;46115;44.484;11.314;2023-01-08T11:15:40;100357.13;;;10.55;97.13
60258;BME280;46115;44.484;11.314;2023-01-08T11:19:43;100356.91;;;10.60;97.97
60258;BME280;46115;44.484;11.314;2023-01-08T11:23:47;100345.59;;;10.91;95.29
60258;BME280;46115;44.484;11.314;2023-01-08T11:28:03;100319.84;;;10.94;94.60
60258;BME280;46115;44.484;11.314;2023-01-08T11:32:28;100322.31;;;11.15;94.31
60258;BME280;46115;44.484;11.314;2023-01-08T11:36:33;100301.25;;;10.96;95.29
60258;BME280;46115;44.484;11.314;2023-01-08T11:40:42;100299.53;;;11.12;95.00
60258;BME280;46115;44.484;11.314;2023-01-08T11:44:55;100288.69;;;11.17;94.42
60258;BME280;46115;44.484;11.314;2023-01-08T11:49:10;100283.38;;;11.33;93.10
60258;BME280;46115;44.484;11.314;2023-01-08T11:53:20;100273.06;;;11.28;93.45
60258;BME280;46115;44.484;11.314;2023-01-08T11:57:42;100263.69;;;11.22;94.08
60258;BME280;46115;44.484;11.314;2023-01-08T12:01:59;100252.88;;;10.94;96.56
60258;BME280;46115;44.484;11.314;2023-01-08T12:06:10;100246.56;;;10.97;95.91
60258;BME280;46115;44.484;11.314;2023-01-08T12:10:19;100244.31;;;11.22;94.05
60258;BME280;46115;44.484;11.314;2023-01-08T12:14:35;100237.47;;;11.34;95.33
60258;BME280;46115;44.484;11.314;2023-01-08T12:18:59;100229.44;;;11.19;96.94
60258;BME280;46115;44.484;11.314;2023-01-08T12:23:23;100226.81;;;11.19;96.66
60258;BME280;46115;44.484;11.314;2023-01-08T12:27:35;100207.56;;;11.63;94.92
60258;BME280;46115;44.484;11.314;2023-01-08T12:32:06;100219.19;;;11.61;94.64
60258;BME280;46115;44.484;11.314;2023-01-08T12:36:17;100199.72;;;11.62;94.29
60258;BME280;46115;44.484;11.314;2023-01-08T12:40:24;100183.59;;;11.50;95.99
60258;BME280;46115;44.484;11.314;2023-01-08T12:44:29;100181.09;;;11.63;95.76
60258;BME280;46115;44.484;11.314;2023-01-08T12:48:35;100167.41;;;11.71;95.74
60258;BME280;46115;44.484;11.314;2023-01-08T12:52:43;100164.41;;;12.07;94.48
60258;BME280;46115;44.484;11.314;2023-01-08T12:56:53;100172.03;;;12.27;94.93
60258;BME280;46115;44.484;11.314;2023-01-08T13:01:04;100163.78;;;12.46;92.54
60258;BME280;46115;44.484;11.314;2023-01-08T13:05:28;100162.28;;;12.42;92.98
60258;BME280;46115;44.484;11.314;2023-01-08T13:09:32;100157.38;;;12.50;91.59
60258;BME280;46115;44.484;11.314;2023-01-08T13:13:36;100136.81;;;12.39;92.45
60258;BME280;46115;44.484;11.314;2023-01-08T13:17:46;100138.22;;;12.45;91.63
60258;BME280;46115;44.484;11.314;2023-01-08T13:21:52;100134.53;;;12.33;93.70
60258;BME280;46115;44.484;11.314;2023-01-08T13:25:57;100126.97;;;12.41;92.49
60258;BME280;46115;44.484;11.314;2023-01-08T13:30:00;100123.66;;;12.38;94.11
60258;BME280;46115;44.484;11.314;2023-01-08T13:34:17;100120.34;;;12.20;95.38
60258;BME280;46115;44.484;11.314;2023-01-08T13:38:22;100124.88;;;12.32;94.27
60258;BME280;46115;44.484;11.314;2023-01-08T13:42:25;100104.88;;;12.12;93.50
60258;BME280;46115;44.484;11.314;2023-01-08T13:46:29;100115.59;;;12.11;95.04
60258;BME280;46115;44.484;11.314;2023-01-08T13:50:44;100108.19;;;12.02;95.21
60258;BME280;46115;44.484;11.314;2023-01-08T13:54:49;100108.56;;;11.81;97.28
60258;BME280;46115;44.484;11.314;2023-01-08T13:58:52;100106.03;;;12.08;95.95
60258;BME280;46115;44.484;11.314;2023-01-08T14:02:55;100109.16;;;12.01;96.88
60258;BME280;46115;44.484;11.314;2023-01-08T14:07:11;100128.09;;;12.23;95.48
60258;BME280;46115;44.484;11.314;2023-01-08T14:11:15;100134.03;;;11.98;95.86
60258;BME280;46115;44.484;11.314;2023-01-08T14:15:23;100130.63;;;12.10;95.83
60258;BME280;46115;44.484;11.314;2023-01-08T14:19:27;100130.25;;;12.45;93.77
60258;BME280;46115;44.484;11.314;2023-01-08T14:23:33;100136.06;;;12.23;94.64
60258;BME280;46115;44.484;11.314;2023-01-08T14:27:39;100132.94;;;12.16;94.95
60258;BME280;46115;44.484;11.314;2023-01-08T14:31:45;100135.41;;;12.20;94.14
60258;BME280;46115;44.484;11.314;2023-01-08T14:35:48;100134.44;;;12.21;94.50
60258;BME280;46115;44.484;11.314;2023-01-08T14:39:51;100131.84;;;12.05;95.03
60258;BME280;46115;44.484;11.314;2023-01-08T14:43:55;100129.09;;;11.92;96.57
60258;BME280;46115;44.484;11.314;2023-01-08T14:47:59;100122.03;;;11.77;96.46
60258;BME280;46115;44.484;11.314;2023-01-08T14:52:02;100127.19;;;11.80;97.44
60258;BME280;46115;44.484;11.314;2023-01-08T14:56:05;100125.22;;;11.98;96.76
60258;BME280;46115;44.484;11.314;2023-01-08T15:00:17;100133.47;;;11.77;98.21
60258;BME280;46115;44.484;11.314;2023-01-08T15:04:21;100124.09;;;11.72;99.08
60258;BME280;46115;44.484;11.314;2023-01-08T15:08:25;100120.69;;;11.85;97.86
60258;BME280;46115;44.484;11.314;2023-01-08T15:12:29;100125.31;;;11.82;97.94
60258;BME280;46115;44.484;11.314;2023-01-08T15:16:37;100107.94;;;11.76;98.08
60258;BME280;46115;44.484;11.314;2023-01-08T15:20:43;100112.81;;;11.68;100.00
60258;BME280;46115;44.484;11.314;2023-01-08T15:24:54;100115.28;;;11.41;100.00
60258;BME280;46115;44.484;11.314;2023-01-08T15:28:59;100116.25;;;11.70;100.00
60258;BME280;46115;44.484;11.314;2023-01-08T15:33:13;100128.03;;;11.65;100.00
60258;BME280;46115;44.484;11.314;2023-01-08T15:37:17;100117.47;;;11.65;100.00
60258;BME280;46115;44.484;11.314;2023-01-08T15:41:21;100108.75;;;11.33;100.00
60258;BME280;46115;44.484;11.314;2023-01-08T15:45:39;100117.94;;;11.11;100.00
60258;BME280;46115;44.484;11.314;2023-01-08T15:49:43;100104.38;;;11.47;100.00
60258;BME280;46115;44.484;11.314;2023-01-08T15:53:46;100086.00;;;11.44;100.00
60258;BME280;46115;44.484;11.314;2023-01-08T15:57:49;100091.47;;;11.41;100.00
60258;BME280;46115;44.484;11.314;2023-01-08T16:01:51;100086.44;;;11.52;100.00
60258;BME280;46115;44.484;11.314;2023-01-08T16:05:55;100085.41;;;11.39;100.00
60258;BME280;46115;44.484;11.314;2023-01-08T16:09:58;100079.53;;;11.34;100.00
60258;BME280;46115;44.484;11.314;2023-01-08T23:06:11;99317.50;;;11.96;100.00
60258;BME280;46115;44.484;11.314;2023-01-08T23:10:15;99296.44;;;12.18;100.00
60258;BME280;46115;44.484;11.314;2023-01-08T23:14:17;99296.22;;;12.22;100.00
60258;BME280;46115;44.484;11.314;2023-01-08T23:18:20;99308.97;;;12.16;100.00
60258;BME280;46115;44.484;11.314;2023-01-08T23:22:23;99304.63;;;11.79;100.00
60258;BME280;46115;44.484;11.314;2023-01-08T23:26:27;99316.00;;;11.81;100.00
60258;BME280;46115;44.484;11.314;2023-01-08T23:30:30;99310.63;;;11.57;100.00
60258;BME280;46115;44.484;11.314;2023-01-08T23:34:32;99296.50;;;11.82;100.00
60258;BME280;46115;44.484;11.314;2023-01-08T23:38:36;99286.53;;;11.73;100.00
60258;BME280;46115;44.484;11.314;2023-01-08T23:42:39;99268.22;;;11.70;100.00
60258;BME280;46115;44.484;11.314;2023-01-08T23:46:41;99261.19;;;11.57;100.00
60258;BME280;46115;44.484;11.314;2023-01-08T23:50:44;99252.22;;;11.35;100.00
60258;BME280;46115;44.484;11.314;2023-01-08T23:54:47;99221.25;;;11.24;100.00
60258;BME280;46115;44.484;11.314;2023-01-08T23:58:49;99245.84;;;10.62;100.00
